sensor_id;sensor_type;location;lat;lon;timestamp;pressure;altitude;pressure_sealevel;temperature;humidity
72486;BME280;60509;47.308;-122.428;2022-07-29T00:00:35;100208.88;;;37.85;9.06
72486;BME280;60509;47.308;-122.428;2022-07-29T00:03:02;100205.00;;;38.24;8.82
72486;BME280;60509;47.308;-122.428;2022-07-29T00:05:26;100200.80;;;38.57;8.74
72486;BME280;60509;47.308;-122.428;2022-07-29T00:07:52;100195.01;;;40.59;7.87
72486;BME280;60509;47.308;-122.428;2022-07-29T00:10:19;100195.17;;;38.94;8.60
72486;BME280;60509;47.308;-122.428;2022-07-29T00:12:44;100194.01;;;38.06;8.76
72486;BME280;60509;47.308;-122.428;2022-07-29T00:15:10;100187.51;;;40.47;8.20
72486;BME280;60509;47.308;-122.428;2022-07-29T00:17:36;100189.25;;;40.12;8.32
72486;BME280;60509;47.308;-122.428;2022-07-29T00:20:02;100184.66;;;38.91;8.42
72486;BME280;60509;47.308;-122.428;2022-07-29T00:22:28;100182.53;;;40.20;8.08
72486;BME280;60509;47.308;-122.428;2022-07-29T00:24:53;100185.73;;;37.67;8.94
72486;BME280;60509;47.308;-122.428;2022-07-29T00:27:19;100184.69;;;38.43;8.36
72486;BME280;60509;47.308;-122.428;2022-07-29T00:29:45;100185.27;;;41.26;7.68
72486;BME280;60509;47.308;-122.428;2022-07-29T00:32:11;100183.70;;;40.60;8.12
72486;BME280;60509;47.308;-122.428;2022-07-29T00:34:37;100181.58;;;39.09;8.98
72486;BME280;60509;47.308;-122.428;2022-07-29T00:37:03;100179.26;;;38.58;9.02
72486;BME280;60509;47.308;-122.428;2022-07-29T00:39:30;100177.65;;;40.06;8.92
72486;BME280;60509;47.308;-122.428;2022-07-29T00:41:55;100172.32;;;37.56;9.41
72486;BME280;60509;47.308;-122.428;2022-07-29T00:44:20;100173.99;;;39.33;8.67
72486;BME280;60509;47.308;-122.428;2022-07-29T00:46:46;100173.58;;;40.38;8.29
72486;BME280;60509;47.308;-122.428;2022-07-29T00:49:13;100171.52;;;40.43;8.57
72486;BME280;60509;47.308;-122.428;2022-07-29T00:51:38;100171.31;;;40.05;8.74
72486;BME280;60509;47.308;-122.428;2022-07-29T00:54:05;100167.28;;;39.83;8.56
72486;BME280;60509;47.308;-122.428;2022-07-29T00:56:31;100161.74;;;41.17;8.52
72486;BME280;60509;47.308;-122.428;2022-07-29T00:58:57;100159.99;;;38.27;9.37
72486;BME280;60509;47.308;-122.428;2022-07-29T01:01:22;100154.16;;;40.20;8.66
72486;BME280;60509;47.308;-122.428;2022-07-29T01:03:47;100154.72;;;41.00;8.64
72486;BME280;60509;47.308;-122.428;2022-07-29T01:06:13;100154.51;;;40.02;9.15
72486;BME280;60509;47.308;-122.428;2022-07-29T01:08:39;100154.43;;;40.98;9.01
72486;BME280;60509;47.308;-122.428;2022-07-29T01:11:05;100158.02;;;39.75;9.80
72486;BME280;60509;47.308;-122.428;2022-07-29T01:13:31;100158.34;;;41.32;9.21
72486;BME280;60509;47.308;-122.428;2022-07-29T01:16:01;100155.37;;;40.58;9.22
72486;BME280;60509;47.308;-122.428;2022-07-29T01:18:30;100153.72;;;42.08;8.44
72486;BME280;60509;47.308;-122.428;2022-07-29T01:21:10;100150.77;;;41.98;8.09
72486;BME280;60509;47.308;-122.428;2022-07-29T01:23:37;100150.24;;;39.16;8.40
72486;BME280;60509;47.308;-122.428;2022-07-29T01:25:54;100155.08;;;44.77;6.63
72486;BME280;60509;47.308;-122.428;2022-07-29T01:28:20;100151.01;;;43.95;6.88
72486;BME280;60509;47.308;-122.428;2022-07-29T01:30:34;100147.36;;;45.70;6.29
72486;BME280;60509;47.308;-122.428;2022-07-29T01:33:03;100146.98;;;43.26;6.52
72486;BME280;60509;47.308;-122.428;2022-07-29T01:35:28;100141.70;;;45.97;6.04
72486;BME280;60509;47.308;-122.428;2022-07-29T01:37:57;100141.40;;;44.89;6.06
72486;BME280;60509;47.308;-122.428;2022-07-29T01:40:24;100133.62;;;46.03;5.61
72486;BME280;60509;47.308;-122.428;2022-07-29T01:42:44;100135.69;;;43.41;6.38
72486;BME280;60509;47.308;-122.428;2022-07-29T01:45:12;100132.74;;;42.30;6.81
72486;BME280;60509;47.308;-122.428;2022-07-29T01:47:38;100130.77;;;42.91;6.38
72486;BME280;60509;47.308;-122.428;2022-07-29T01:50:00;100127.70;;;42.34;6.73
72486;BME280;60509;47.308;-122.428;2022-07-29T01:52:33;100126.80;;;43.97;6.29
72486;BME280;60509;47.308;-122.428;2022-07-29T01:54:55;100126.97;;;44.09;6.19
72486;BME280;60509;47.308;-122.428;2022-07-29T01:57:21;100125.00;;;41.58;6.67
72486;BME280;60509;47.308;-122.428;2022-07-29T01:59:44;100124.03;;;40.59;7.01
72486;BME280;60509;47.308;-122.428;2022-07-29T02:02:12;100118.16;;;42.69;6.36
72486;BME280;60509;47.308;-122.428;2022-07-29T02:04:37;100119.79;;;41.59;6.84
72486;BME280;60509;47.308;-122.428;2022-07-29T02:07:03;100119.92;;;44.38;6.05
72486;BME280;60509;47.308;-122.428;2022-07-29T02:09:28;100123.73;;;41.31;6.80
72486;BME280;60509;47.308;-122.428;2022-07-29T02:11:55;100120.50;;;40.63;6.93
72486;BME280;60509;47.308;-122.428;2022-07-29T02:14:21;100120.26;;;42.25;6.54
72486;BME280;60509;47.308;-122.428;2022-07-29T02:16:46;100118.50;;;38.66;7.68
72486;BME280;60509;47.308;-122.428;2022-07-29T02:19:13;100117.50;;;45.24;5.94
72486;BME280;60509;47.308;-122.428;2022-07-29T02:21:38;100115.13;;;45.36;6.00
72486;BME280;60509;47.308;-122.428;2022-07-29T02:24:04;100117.09;;;42.90;6.56
72486;BME280;60509;47.308;-122.428;2022-07-29T02:26:30;100117.75;;;37.89;8.36
72486;BME280;60509;47.308;-122.428;2022-07-29T02:28:57;100118.67;;;42.57;6.89
72486;BME280;60509;47.308;-122.428;2022-07-29T02:31:24;100117.00;;;37.88;8.22
72486;BME280;60509;47.308;-122.428;2022-07-29T02:33:46;100118.39;;;37.42;8.53
72486;BME280;60509;47.308;-122.428;2022-07-29T02:36:11;100119.71;;;41.13;7.53
72486;BME280;60509;47.308;-122.428;2022-07-29T02:38:37;100119.80;;;39.62;8.02
72486;BME280;60509;47.308;-122.428;2022-07-29T02:41:08;100124.41;;;39.66;8.36
72486;BME280;60509;47.308;-122.428;2022-07-29T02:43:30;100122.03;;;40.40;8.84
72486;BME280;60509;47.308;-122.428;2022-07-29T02:45:55;100117.93;;;38.84;9.20
72486;BME280;60509;47.308;-122.428;2022-07-29T02:48:25;100121.61;;;38.45;9.23
72486;BME280;60509;47.308;-122.428;2022-07-29T02:50:48;100118.32;;;39.66;8.95
72486;BME280;60509;47.308;-122.428;2022-07-29T02:53:14;100125.84;;;37.59;9.74
72486;BME280;60509;47.308;-122.428;2022-07-29T02:55:40;100125.16;;;37.27;10.19
72486;BME280;60509;47.308;-122.428;2022-07-29T02:58:03;100123.09;;;36.76;10.55
72486;BME280;60509;47.308;-122.428;2022-07-29T03:00:28;100121.88;;;38.72;9.86
72486;BME280;60509;47.308;-122.428;2022-07-29T03:02:53;100122.90;;;37.21;10.48
72486;BME280;60509;47.308;-122.428;2022-07-29T03:05:18;100118.34;;;34.94;11.46
72486;BME280;60509;47.308;-122.428;2022-07-29T03:07:45;100116.44;;;35.96;11.07
72486;BME280;60509;47.308;-122.428;2022-07-29T03:10:08;100112.77;;;35.31;11.78
72486;BME280;60509;47.308;-122.428;2022-07-29T03:12:31;100110.74;;;32.84;13.24
72486;BME280;60509;47.308;-122.428;2022-07-29T03:14:57;100117.98;;;29.55;15.54
72486;BME280;60509;47.308;-122.428;2022-07-29T03:17:22;100114.01;;;29.39;16.17
72486;BME280;60509;47.308;-122.428;2022-07-29T03:19:47;100114.20;;;28.96;16.91
72486;BME280;60509;47.308;-122.428;2022-07-29T03:22:12;100116.24;;;28.81;17.81
72486;BME280;60509;47.308;-122.428;2022-07-29T03:24:37;100116.14;;;28.73;17.54
72486;BME280;60509;47.308;-122.428;2022-07-29T03:27:03;100120.34;;;29.88;17.24
72486;BME280;60509;47.308;-122.428;2022-07-29T03:29:28;100120.59;;;29.25;17.68
72486;BME280;60509;47.308;-122.428;2022-07-29T03:31:53;100121.53;;;27.92;18.67
72486;BME280;60509;47.308;-122.428;2022-07-29T03:34:18;100126.59;;;28.12;18.87
72486;BME280;60509;47.308;-122.428;2022-07-29T03:36:43;100128.16;;;26.45;19.82
72486;BME280;60509;47.308;-122.428;2022-07-29T03:39:09;100126.83;;;25.96;20.37
72486;BME280;60509;47.308;-122.428;2022-07-29T03:41:34;100125.36;;;25.19;21.44
72486;BME280;60509;47.308;-122.428;2022-07-29T03:43:59;100124.79;;;24.50;22.45
72486;BME280;60509;47.308;-122.428;2022-07-29T03:46:27;100125.21;;;23.32;23.61
72486;BME280;60509;47.308;-122.428;2022-07-29T03:48:54;100125.62;;;23.93;23.47
72486;BME280;60509;47.308;-122.428;2022-07-29T03:51:15;100126.22;;;23.16;24.09
72486;BME280;60509;47.308;-122.428;2022-07-29T03:53:40;100128.61;;;21.50;26.24
72486;BME280;60509;47.308;-122.428;2022-07-29T03:56:07;100128.59;;;21.30;27.32
72486;BME280;60509;47.308;-122.428;2022-07-29T03:58:32;100135.68;;;21.04;27.45
72486;BME280;60509;47.308;-122.428;2022-07-29T04:00:57;100141.04;;;21.77;27.24
72486;BME280;60509;47.308;-122.428;2022-07-29T04:03:22;100139.68;;;18.65;29.95
72486;BME280;60509;47.308;-122.428;2022-07-29T04:05:59;100140.62;;;19.79;29.68
72486;BME280;60509;47.308;-122.428;2022-07-29T04:08:13;100146.94;;;17.45;32.34
72486;BME280;60509;47.308;-122.428;2022-07-29T04:10:39;100146.84;;;19.48;30.86
72486;BME280;60509;47.308;-122.428;2022-07-29T04:13:04;100148.58;;;19.54;30.84
72486;BME280;60509;47.308;-122.428;2022-07-29T04:15:30;100151.46;;;17.92;32.70
72486;BME280;60509;47.308;-122.428;2022-07-29T04:17:55;100154.27;;;19.12;31.79
72486;BME280;60509;47.308;-122.428;2022-07-29T04:20:21;100155.26;;;18.36;32.26
72486;BME280;60509;47.308;-122.428;2022-07-29T04:22:46;100156.92;;;17.77;33.09
72486;BME280;60509;47.308;-122.428;2022-07-29T04:25:12;100162.19;;;16.16;35.10
72486;BME280;60509;47.308;-122.428;2022-07-29T04:27:37;100166.67;;;16.89;34.47
72486;BME280;60509;47.308;-122.428;2022-07-29T04:30:03;100169.95;;;17.44;34.31
72486;BME280;60509;47.308;-122.428;2022-07-29T04:32:28;100168.74;;;16.26;35.47
72486;BME280;60509;47.308;-122.428;2022-07-29T04:34:54;100167.85;;;16.54;35.12
72486;BME280;60509;47.308;-122.428;2022-07-29T04:37:19;100164.85;;;16.36;35.26
72486;BME280;60509;47.308;-122.428;2022-07-29T04:39:45;100164.68;;;16.19;36.48
72486;BME280;60509;47.308;-122.428;2022-07-29T04:42:10;100170.29;;;15.41;36.53
72486;BME280;60509;47.308;-122.428;2022-07-29T04:44:36;100175.77;;;15.27;36.47
72486;BME280;60509;47.308;-122.428;2022-07-29T04:47:01;100172.80;;;15.94;36.40
72486;BME280;60509;47.308;-122.428;2022-07-29T04:49:27;100176.67;;;16.34;35.62
72486;BME280;60509;47.308;-122.428;2022-07-29T04:51:53;100181.60;;;16.21;35.06
72486;BME280;60509;47.308;-122.428;2022-07-29T04:54:18;100181.77;;;16.72;35.13
72486;BME280;60509;47.308;-122.428;2022-07-29T04:56:44;100174.54;;;15.38;36.32
72486;BME280;60509;47.308;-122.428;2022-07-29T04:59:10;100176.71;;;14.77;37.12
72486;BME280;60509;47.308;-122.428;2022-07-29T05:01:35;100179.03;;;15.74;36.64
72486;BME280;60509;47.308;-122.428;2022-07-29T05:04:01;100190.40;;;16.47;35.86
72486;BME280;60509;47.308;-122.428;2022-07-29T05:06:27;100191.79;;;16.76;35.43
72486;BME280;60509;47.308;-122.428;2022-07-29T05:08:52;100190.70;;;16.41;35.48
72486;BME280;60509;47.308;-122.428;2022-07-29T05:11:18;100184.62;;;17.10;35.34
72486;BME280;60509;47.308;-122.428;2022-07-29T05:13:44;100183.34;;;16.59;35.94
72486;BME280;60509;47.308;-122.428;2022-07-29T05:16:09;100185.67;;;14.58;38.06
72486;BME280;60509;47.308;-122.428;2022-07-29T05:18:35;100188.44;;;14.64;38.12
72486;BME280;60509;47.308;-122.428;2022-07-29T05:21:01;100189.64;;;16.02;36.57
72486;BME280;60509;47.308;-122.428;2022-07-29T05:23:26;100190.72;;;14.91;37.73
72486;BME280;60509;47.308;-122.428;2022-07-29T05:25:52;100190.99;;;13.49;39.90
72486;BME280;60509;47.308;-122.428;2022-07-29T05:28:18;100187.90;;;15.18;37.88
72486;BME280;60509;47.308;-122.428;2022-07-29T05:30:43;100188.44;;;13.96;39.27
72486;BME280;60509;47.308;-122.428;2022-07-29T05:33:09;100190.62;;;15.28;37.73
72486;BME280;60509;47.308;-122.428;2022-07-29T05:35:34;100192.67;;;15.00;37.65
72486;BME280;60509;47.308;-122.428;2022-07-29T05:38:00;100186.27;;;14.92;37.93
72486;BME280;60509;47.308;-122.428;2022-07-29T05:40:26;100184.61;;;14.53;38.96
72486;BME280;60509;47.308;-122.428;2022-07-29T05:42:52;100184.27;;;13.80;39.84
72486;BME280;60509;47.308;-122.428;2022-07-29T05:45:17;100187.00;;;14.67;38.16
72486;BME280;60509;47.308;-122.428;2022-07-29T05:47:43;100189.75;;;14.75;38.40
72486;BME280;60509;47.308;-122.428;2022-07-29T05:50:09;100191.99;;;14.78;37.98
72486;BME280;60509;47.308;-122.428;2022-07-29T05:52:34;100190.41;;;13.96;39.69
72486;BME280;60509;47.308;-122.428;2022-07-29T05:55:00;100189.93;;;14.45;39.25
72486;BME280;60509;47.308;-122.428;2022-07-29T05:57:26;100188.37;;;14.33;39.17
72486;BME280;60509;47.308;-122.428;2022-07-29T05:59:51;100190.93;;;14.44;38.89
72486;BME280;60509;47.308;-122.428;2022-07-29T06:02:18;100195.61;;;14.11;39.45
72486;BME280;60509;47.308;-122.428;2022-07-29T06:04:43;100197.78;;;13.72;39.64
72486;BME280;60509;47.308;-122.428;2022-07-29T06:07:08;100197.36;;;14.75;38.89
72486;BME280;60509;47.308;-122.428;2022-07-29T06:09:34;100197.04;;;14.41;39.28
72486;BME280;60509;47.308;-122.428;2022-07-29T06:12:00;100197.30;;;14.62;39.14
72486;BME280;60509;47.308;-122.428;2022-07-29T06:14:26;100195.36;;;14.04;40.20
72486;BME280;60509;47.308;-122.428;2022-07-29T06:16:51;100199.20;;;14.17;39.81
72486;BME280;60509;47.308;-122.428;2022-07-29T06:19:17;100202.92;;;13.85;40.14
72486;BME280;60509;47.308;-122.428;2022-07-29T06:21:43;100203.76;;;13.77;40.44
72486;BME280;60509;47.308;-122.428;2022-07-29T06:24:08;100205.61;;;14.54;39.99
72486;BME280;60509;47.308;-122.428;2022-07-29T06:26:34;100203.29;;;14.06;40.26
72486;BME280;60509;47.308;-122.428;2022-07-29T06:29:00;100200.16;;;14.51;40.05
72486;BME280;60509;47.308;-122.428;2022-07-29T06:31:25;100201.75;;;14.08;40.38
72486;BME280;60509;47.308;-122.428;2022-07-29T06:33:51;100207.84;;;14.80;39.35
72486;BME280;60509;47.308;-122.428;2022-07-29T06:36:17;100212.06;;;14.88;39.59
72486;BME280;60509;47.308;-122.428;2022-07-29T06:38:42;100209.90;;;13.47;41.13
72486;BME280;60509;47.308;-122.428;2022-07-29T06:41:09;100205.49;;;13.88;40.91
72486;BME280;60509;47.308;-122.428;2022-07-29T06:43:35;100209.71;;;14.23;40.60
72486;BME280;60509;47.308;-122.428;2022-07-29T06:46:01;100215.34;;;13.17;40.73
72486;BME280;60509;47.308;-122.428;2022-07-29T06:48:25;100212.46;;;13.95;39.87
72486;BME280;60509;47.308;-122.428;2022-07-29T06:50:51;100210.17;;;14.67;39.21
72486;BME280;60509;47.308;-122.428;2022-07-29T06:53:16;100211.11;;;15.26;38.98
72486;BME280;60509;47.308;-122.428;2022-07-29T06:55:42;100211.98;;;15.03;39.15
72486;BME280;60509;47.308;-122.428;2022-07-29T06:58:08;100213.56;;;15.16;39.16
72486;BME280;60509;47.308;-122.428;2022-07-29T07:00:33;100212.78;;;14.74;39.79
72486;BME280;60509;47.308;-122.428;2022-07-29T07:02:59;100212.21;;;15.43;38.37
72486;BME280;60509;47.308;-122.428;2022-07-29T07:05:25;100210.24;;;15.07;38.72
72486;BME280;60509;47.308;-122.428;2022-07-29T07:07:51;100205.70;;;14.34;39.16
72486;BME280;60509;47.308;-122.428;2022-07-29T07:10:16;100204.82;;;14.72;39.68
72486;BME280;60509;47.308;-122.428;2022-07-29T07:12:42;100207.07;;;14.44;39.81
72486;BME280;60509;47.308;-122.428;2022-07-29T07:15:08;100212.76;;;14.88;39.42
72486;BME280;60509;47.308;-122.428;2022-07-29T07:17:33;100214.40;;;14.21;40.06
72486;BME280;60509;47.308;-122.428;2022-07-29T07:19:59;100219.92;;;14.99;39.38
72486;BME280;60509;47.308;-122.428;2022-07-29T07:22:25;100227.59;;;14.86;38.98
72486;BME280;60509;47.308;-122.428;2022-07-29T07:24:50;100225.47;;;15.54;38.45
72486;BME280;60509;47.308;-122.428;2022-07-29T07:27:16;100218.31;;;14.32;39.93
72486;BME280;60509;47.308;-122.428;2022-07-29T07:29:42;100222.46;;;15.14;39.03
72486;BME280;60509;47.308;-122.428;2022-07-29T07:32:08;100228.30;;;14.90;39.53
72486;BME280;60509;47.308;-122.428;2022-07-29T07:34:34;100232.35;;;14.63;39.40
72486;BME280;60509;47.308;-122.428;2022-07-29T07:36:59;100231.44;;;14.78;40.77
72486;BME280;60509;47.308;-122.428;2022-07-29T07:39:24;100227.39;;;14.33;40.98
72486;BME280;60509;47.308;-122.428;2022-07-29T07:41:50;100230.41;;;14.01;41.35
72486;BME280;60509;47.308;-122.428;2022-07-29T07:44:16;100230.71;;;14.35;41.18
72486;BME280;60509;47.308;-122.428;2022-07-29T07:46:42;100234.71;;;13.92;41.22
72486;BME280;60509;47.308;-122.428;2022-07-29T07:49:07;100234.26;;;14.40;40.88
72486;BME280;60509;47.308;-122.428;2022-07-29T07:51:33;100232.27;;;13.09;42.36
72486;BME280;60509;47.308;-122.428;2022-07-29T07:54:00;100227.17;;;13.70;41.76
72486;BME280;60509;47.308;-122.428;2022-07-29T07:56:24;100224.03;;;13.98;41.39
72486;BME280;60509;47.308;-122.428;2022-07-29T07:58:50;100220.77;;;13.56;41.61
72486;BME280;60509;47.308;-122.428;2022-07-29T08:01:16;100217.46;;;13.46;42.06
72486;BME280;60509;47.308;-122.428;2022-07-29T08:03:42;100221.84;;;13.04;42.68
72486;BME280;60509;47.308;-122.428;2022-07-29T08:06:07;100218.58;;;12.77;42.98
72486;BME280;60509;47.308;-122.428;2022-07-29T08:08:33;100216.86;;;12.77;43.08
72486;BME280;60509;47.308;-122.428;2022-07-29T08:10:59;100213.13;;;13.58;41.91
72486;BME280;60509;47.308;-122.428;2022-07-29T08:13:27;100220.23;;;13.56;43.12
72486;BME280;60509;47.308;-122.428;2022-07-29T08:15:50;100222.30;;;12.72;44.27
72486;BME280;60509;47.308;-122.428;2022-07-29T08:18:16;100224.39;;;13.12;43.70
72486;BME280;60509;47.308;-122.428;2022-07-29T08:20:42;100228.38;;;12.92;43.72
72486;BME280;60509;47.308;-122.428;2022-07-29T08:23:08;100223.37;;;13.21;43.22
72486;BME280;60509;47.308;-122.428;2022-07-29T08:25:33;100215.58;;;12.47;44.66
72486;BME280;60509;47.308;-122.428;2022-07-29T08:27:59;100209.62;;;12.95;44.26
72486;BME280;60509;47.308;-122.428;2022-07-29T08:30:24;100214.40;;;13.54;42.94
72486;BME280;60509;47.308;-122.428;2022-07-29T08:32:50;100221.46;;;13.04;43.65
72486;BME280;60509;47.308;-122.428;2022-07-29T08:35:16;100221.77;;;12.50;44.80
72486;BME280;60509;47.308;-122.428;2022-07-29T08:37:42;100221.06;;;12.55;44.26
72486;BME280;60509;47.308;-122.428;2022-07-29T08:40:08;100222.11;;;12.53;44.11
72486;BME280;60509;47.308;-122.428;2022-07-29T08:42:33;100223.93;;;12.43;44.28
72486;BME280;60509;47.308;-122.428;2022-07-29T08:44:59;100224.45;;;12.51;44.71
72486;BME280;60509;47.308;-122.428;2022-07-29T08:47:26;100222.77;;;12.24;44.92
72486;BME280;60509;47.308;-122.428;2022-07-29T08:49:51;100220.63;;;11.45;46.21
72486;BME280;60509;47.308;-122.428;2022-07-29T08:52:16;100225.53;;;13.23;43.86
72486;BME280;60509;47.308;-122.428;2022-07-29T08:54:44;100230.01;;;13.25;43.96
72486;BME280;60509;47.308;-122.428;2022-07-29T08:57:08;100229.41;;;12.75;44.78
72486;BME280;60509;47.308;-122.428;2022-07-29T08:59:34;100219.98;;;11.35;46.64
72486;BME280;60509;47.308;-122.428;2022-07-29T09:02:00;100216.02;;;11.19;47.88
72486;BME280;60509;47.308;-122.428;2022-07-29T09:04:29;100225.76;;;12.26;45.77
72486;BME280;60509;47.308;-122.428;2022-07-29T09:06:52;100233.58;;;11.83;45.38
72486;BME280;60509;47.308;-122.428;2022-07-29T09:09:17;100237.48;;;12.20;45.08
72486;BME280;60509;47.308;-122.428;2022-07-29T09:11:43;100227.76;;;10.26;49.06
72486;BME280;60509;47.308;-122.428;2022-07-29T09:14:11;100222.87;;;10.19;49.84
72486;BME280;60509;47.308;-122.428;2022-07-29T09:17:07;100216.85;;;10.39;49.14
72486;BME280;60509;47.308;-122.428;2022-07-29T09:19:00;100217.09;;;10.62;50.41
72486;BME280;60509;47.308;-122.428;2022-07-29T09:21:40;100215.96;;;10.65;49.73
72486;BME280;60509;47.308;-122.428;2022-07-29T09:24:09;100221.89;;;11.77;47.16
72486;BME280;60509;47.308;-122.428;2022-07-29T09:26:17;100221.79;;;12.66;46.02
72486;BME280;60509;47.308;-122.428;2022-07-29T09:28:43;100228.88;;;11.89;46.40
72486;BME280;60509;47.308;-122.428;2022-07-29T09:31:09;100222.90;;;11.33;46.97
72486;BME280;60509;47.308;-122.428;2022-07-29T09:33:35;100223.16;;;10.62;48.21
72486;BME280;60509;47.308;-122.428;2022-07-29T09:36:03;100224.68;;;12.03;46.41
72486;BME280;60509;47.308;-122.428;2022-07-29T09:38:26;100223.83;;;11.72;47.14
72486;BME280;60509;47.308;-122.428;2022-07-29T09:40:57;100218.96;;;11.89;47.10
72486;BME280;60509;47.308;-122.428;2022-07-29T09:43:18;100224.32;;;11.49;47.45
72486;BME280;60509;47.308;-122.428;2022-07-29T09:45:44;100234.71;;;10.87;48.86
72486;BME280;60509;47.308;-122.428;2022-07-29T09:48:18;100243.03;;;10.86;49.80
72486;BME280;60509;47.308;-122.428;2022-07-29T09:50:37;100236.67;;;10.58;48.46
72486;BME280;60509;47.308;-122.428;2022-07-29T09:53:01;100226.77;;;11.02;48.65
72486;BME280;60509;47.308;-122.428;2022-07-29T09:55:27;100227.20;;;11.67;48.17
72486;BME280;60509;47.308;-122.428;2022-07-29T09:57:53;100232.92;;;10.96;49.41
72486;BME280;60509;47.308;-122.428;2022-07-29T10:00:20;100243.49;;;10.01;50.52
72486;BME280;60509;47.308;-122.428;2022-07-29T10:02:47;100243.86;;;10.46;49.91
72486;BME280;60509;47.308;-122.428;2022-07-29T10:05:19;100246.79;;;10.74;48.55
72486;BME280;60509;47.308;-122.428;2022-07-29T10:07:45;100245.06;;;10.14;50.10
72486;BME280;60509;47.308;-122.428;2022-07-29T10:10:02;100242.50;;;11.18;48.86
72486;BME280;60509;47.308;-122.428;2022-07-29T10:12:28;100245.52;;;10.10;49.38
72486;BME280;60509;47.308;-122.428;2022-07-29T10:14:54;100249.66;;;11.51;48.16
72486;BME280;60509;47.308;-122.428;2022-07-29T10:17:21;100249.76;;;11.60;47.33
72486;BME280;60509;47.308;-122.428;2022-07-29T10:19:46;100250.64;;;11.55;46.63
72486;BME280;60509;47.308;-122.428;2022-07-29T10:22:12;100252.64;;;10.86;48.25
72486;BME280;60509;47.308;-122.428;2022-07-29T10:24:38;100254.19;;;11.48;47.26
72486;BME280;60509;47.308;-122.428;2022-07-29T10:27:05;100254.61;;;11.33;48.08
72486;BME280;60509;47.308;-122.428;2022-07-29T10:29:29;100254.55;;;11.36;47.42
72486;BME280;60509;47.308;-122.428;2022-07-29T10:32:06;100253.44;;;9.69;49.68
72486;BME280;60509;47.308;-122.428;2022-07-29T10:34:26;100252.57;;;9.62;50.38
72486;BME280;60509;47.308;-122.428;2022-07-29T10:36:54;100252.31;;;11.35;47.74
72486;BME280;60509;47.308;-122.428;2022-07-29T10:39:21;100253.64;;;11.33;48.53
72486;BME280;60509;47.308;-122.428;2022-07-29T10:41:53;100255.82;;;10.79;48.46
72486;BME280;60509;47.308;-122.428;2022-07-29T10:44:06;100259.11;;;10.90;48.66
72486;BME280;60509;47.308;-122.428;2022-07-29T10:46:35;100260.65;;;10.97;47.92
72486;BME280;60509;47.308;-122.428;2022-07-29T10:49:07;100259.14;;;10.63;48.77
72486;BME280;60509;47.308;-122.428;2022-07-29T10:51:22;100262.53;;;11.06;47.69
72486;BME280;60509;47.308;-122.428;2022-07-29T10:53:49;100263.62;;;11.27;47.63
72486;BME280;60509;47.308;-122.428;2022-07-29T10:56:24;100264.47;;;10.30;48.80
72486;BME280;60509;47.308;-122.428;2022-07-29T10:58:39;100265.03;;;9.82;50.22
72486;BME280;60509;47.308;-122.428;2022-07-29T11:01:30;100266.45;;;10.17;49.49
72486;BME280;60509;47.308;-122.428;2022-07-29T11:03:48;100268.92;;;9.47;50.94
72486;BME280;60509;47.308;-122.428;2022-07-29T11:05:57;100269.63;;;10.79;48.95
72486;BME280;60509;47.308;-122.428;2022-07-29T11:08:24;100271.11;;;10.98;47.88
72486;BME280;60509;47.308;-122.428;2022-07-29T11:10:49;100277.34;;;9.57;50.19
72486;BME280;60509;47.308;-122.428;2022-07-29T11:13:46;100276.75;;;10.22;49.45
72486;BME280;60509;47.308;-122.428;2022-07-29T11:15:57;100283.53;;;9.53;50.23
72486;BME280;60509;47.308;-122.428;2022-07-29T11:18:07;100282.06;;;10.58;49.41
72486;BME280;60509;47.308;-122.428;2022-07-29T11:20:34;100278.65;;;11.02;49.01
72486;BME280;60509;47.308;-122.428;2022-07-29T11:22:59;100274.89;;;10.82;48.21
72486;BME280;60509;47.308;-122.428;2022-07-29T11:25:24;100274.38;;;10.42;49.07
72486;BME280;60509;47.308;-122.428;2022-07-29T11:27:52;100275.83;;;10.79;49.29
72486;BME280;60509;47.308;-122.428;2022-07-29T11:30:17;100276.09;;;11.27;48.35
72486;BME280;60509;47.308;-122.428;2022-07-29T11:32:43;100274.40;;;10.68;48.96
72486;BME280;60509;47.308;-122.428;2022-07-29T11:35:13;100270.42;;;9.31;51.64
72486;BME280;60509;47.308;-122.428;2022-07-29T11:37:33;100265.54;;;10.15;50.43
72486;BME280;60509;47.308;-122.428;2022-07-29T11:40:16;100267.37;;;10.55;49.26
72486;BME280;60509;47.308;-122.428;2022-07-29T11:42:43;100277.29;;;10.64;49.67
72486;BME280;60509;47.308;-122.428;2022-07-29T11:44:55;100277.63;;;10.09;50.26
72486;BME280;60509;47.308;-122.428;2022-07-29T11:47:20;100281.65;;;10.05;50.28
72486;BME280;60509;47.308;-122.428;2022-07-29T11:49:45;100280.65;;;10.87;48.98
72486;BME280;60509;47.308;-122.428;2022-07-29T11:52:10;100278.94;;;10.15;50.05
72486;BME280;60509;47.308;-122.428;2022-07-29T11:54:35;100280.81;;;10.15;50.53
72486;BME280;60509;47.308;-122.428;2022-07-29T11:57:01;100280.92;;;10.77;49.30
72486;BME280;60509;47.308;-122.428;2022-07-29T11:59:27;100281.20;;;10.87;49.05
72486;BME280;60509;47.308;-122.428;2022-07-29T12:01:53;100277.19;;;10.43;49.38
72486;BME280;60509;47.308;-122.428;2022-07-29T12:04:18;100274.99;;;10.36;49.70
72486;BME280;60509;47.308;-122.428;2022-07-29T12:06:49;100282.48;;;10.79;49.14
72486;BME280;60509;47.308;-122.428;2022-07-29T12:09:10;100282.29;;;10.79;49.24
72486;BME280;60509;47.308;-122.428;2022-07-29T12:11:36;100279.41;;;9.89;49.83
72486;BME280;60509;47.308;-122.428;2022-07-29T12:14:02;100277.58;;;10.18;50.01